Key Lake, Canada
Current Conditions -  °F | °C
As of 10:00 PM on Sunday 28 Dec 2014 (Local Time) from CYKJ Reporting Station
Clear Clear  
Wind Chill: -27°   Ceiling: Unl
Heat Index: -27°   Visibility: 9mi
Dew Point: -33°   Wind: 3mph
Humidity: 75%   Direction: 260°W
Pressure: 30.57"   Gusts: NA
Location:  57.21°N, 105.66°W
Report Text: CYKJ 290400Z AUTO 26003KT 9SM CLR M33/M36 A3057 RMK SLP436
Loading
Personal Weather Stations






























Interactive Weather Map New forecast layout! Learn more

10-Day Weather Forecast

Advertisements
Track Severe Weather on mobile